Time;durP1;ratioP1;P1;durP2;ratioP2;P2;SDS_P1;SDS_P2;PMS_P1;PMS_P2;Temp;Humidity;BMP_temperature;BMP_pressure;BME280_temperature;BME280_humidity;BME280_pressure;Samples;Min_cycle;Max_cycle;Signal;HPM_P1;HPM_P2
2023/09/25 00:01:33;;;;;;;0.10;0.10;;;16.10;99.90;;;;;;4912629;29;20027;-89
2023/09/25 00:04:00;;;;;;;0.10;0.10;;;16.00;99.90;;;;;;4928549;29;20026;-90
2023/09/25 00:06:26;;;;;;;0.10;0.10;;;16.00;99.90;;;;;;4938146;28;20011;-87
2023/09/25 00:08:51;;;;;;;1.67;0.52;;;15.90;99.90;;;;;;4936207;29;20056;-86
2023/09/25 00:11:17;;;;;;;0.10;0.10;;;15.80;99.90;;;;;;4936668;28;20034;-87
2023/09/25 00:13:43;;;;;;;0.10;0.10;;;15.80;99.90;;;;;;4921197;29;20039;-89
2023/09/25 00:16:16;;;;;;;0.20;0.20;;;15.80;99.90;;;;;;4928293;29;20126;-91
2023/09/25 00:18:45;;;;;;;0.10;0.10;;;15.80;99.90;;;;;;4910628;29;20020;-90
2023/09/25 00:21:11;;;;;;;0.40;0.40;;;15.70;99.90;;;;;;4910574;29;20080;-87
2023/09/25 00:23:38;;;;;;;0.15;0.15;;;15.60;99.90;;;;;;4912312;29;20027;-88
2023/09/25 00:26:06;;;;;;;0.20;0.20;;;15.60;99.90;;;;;;4928065;29;20023;-90
2023/09/25 00:28:34;;;;;;;0.45;0.45;;;15.60;99.90;;;;;;4927472;29;20931;-88
2023/09/25 00:31:00;;;;;;;0.10;0.10;;;15.50;99.90;;;;;;4912052;29;20038;-89
2023/09/25 00:33:26;;;;;;;0.10;0.10;;;15.40;99.90;;;;;;4910450;29;20023;-88
2023/09/25 00:35:55;;;;;;;0.10;0.10;;;15.40;99.90;;;;;;4927449;29;20036;-89
2023/09/25 00:38:21;;;;;;;0.10;0.10;;;15.40;99.90;;;;;;4927490;29;20032;-89
2023/09/25 00:40:47;;;;;;;0.10;0.10;;;15.40;99.90;;;;;;4911779;29;20028;-89
2023/09/25 00:43:13;;;;;;;0.20;0.20;;;15.40;99.90;;;;;;4912731;29;20028;-91
2023/09/25 00:45:40;;;;;;;0.10;0.10;;;15.50;99.90;;;;;;4909831;29;21308;-90
2023/09/25 00:48:10;;;;;;;0.10;0.10;;;15.60;99.90;;;;;;4929239;29;20567;-88
2023/09/25 00:50:36;;;;;;;0.32;0.32;;;15.60;99.90;;;;;;4926773;29;20094;-89
2023/09/25 00:53:09;;;;;;;0.10;0.10;;;15.70;99.90;;;;;;4928817;29;20119;-91
2023/09/25 00:55:37;;;;;;;0.10;0.10;;;15.60;99.90;;;;;;4911061;29;20494;-90
2023/09/25 00:58:06;;;;;;;0.10;0.10;;;15.60;99.90;;;;;;4925929;29;20031;-89
2023/09/25 01:00:35;;;;;;;0.10;0.10;;;15.60;99.90;;;;;;4910237;29;20027;-88
2023/09/25 01:03:00;;;;;;;0.10;0.10;;;15.60;99.90;;;;;;4909028;29;20034;-90
2023/09/25 01:05:29;;;;;;;0.10;0.10;;;15.60;99.90;;;;;;4906823;29;20027;-89
2023/09/25 01:07:54;;;;;;;0.52;0.43;;;15.70;99.90;;;;;;4926487;29;20037;-90
2023/09/25 01:10:20;;;;;;;0.10;0.10;;;15.80;99.90;;;;;;4926600;29;20031;-87
2023/09/25 01:12:47;;;;;;;0.20;0.20;;;15.80;99.90;;;;;;4911135;29;20028;-91
2023/09/25 01:15:14;;;;;;;0.10;0.10;;;15.90;99.90;;;;;;4909924;29;20107;-89
2023/09/25 01:17:40;;;;;;;0.30;0.30;;;16.00;99.90;;;;;;4929011;29;20024;-89
2023/09/25 01:20:13;;;;;;;0.95;0.30;;;16.10;99.90;;;;;;4912509;29;20062;-89
2023/09/25 01:22:46;;;;;;;0.10;0.10;;;16.20;99.90;;;;;;4925357;29;20087;-89
2023/09/25 01:25:13;;;;;;;0.10;0.10;;;16.20;99.90;;;;;;4927000;29;20031;-89
2023/09/25 01:27:39;;;;;;;0.28;0.28;;;16.30;99.90;;;;;;4926941;29;20040;-90
2023/09/25 01:30:08;;;;;;;0.20;0.20;;;16.30;99.90;;;;;;4910564;29;20036;-90
2023/09/25 01:32:35;;;;;;;0.10;0.10;;;16.20;99.90;;;;;;4912429;29;20539;-89
2023/09/25 01:35:02;;;;;;;0.35;0.35;;;16.20;99.90;;;;;;4927257;29;20032;-89
2023/09/25 01:37:27;;;;;;;0.40;0.40;;;16.20;99.90;;;;;;4909286;29;20031;-90
2023/09/25 01:39:53;;;;;;;0.10;0.10;;;16.10;99.90;;;;;;4926114;29;20032;-89
2023/09/25 01:42:19;;;;;;;0.10;0.10;;;16.20;99.90;;;;;;4911471;29;20135;-89
2023/09/25 01:44:44;;;;;;;0.15;0.15;;;16.10;99.90;;;;;;4908727;29;20028;-90
2023/09/25 01:47:12;;;;;;;0.10;0.10;;;16.00;99.90;;;;;;4910892;29;20043;-89
2023/09/25 01:49:38;;;;;;;0.10;0.10;;;16.00;99.90;;;;;;4929471;29;20951;-90
2023/09/25 01:52:07;;;;;;;0.10;0.10;;;15.90;99.90;;;;;;4930808;29;20019;-91
2023/09/25 01:54:33;;;;;;;0.20;0.20;;;15.70;99.90;;;;;;4931201;29;20476;-89
2023/09/25 01:56:58;;;;;;;0.15;0.15;;;15.60;99.90;;;;;;4929417;29;20042;-89
2023/09/25 01:59:24;;;;;;;0.10;0.10;;;15.60;99.90;;;;;;4913403;29;20435;-89
2023/09/25 02:01:49;;;;;;;0.47;0.47;;;15.40;99.90;;;;;;4930879;29;20110;-90
2023/09/25 02:04:15;;;;;;;0.10;0.10;;;15.30;99.90;;;;;;4930355;29;20035;-90
2023/09/25 02:06:41;;;;;;;0.17;0.17;;;15.30;99.90;;;;;;4927569;29;20026;-90
2023/09/25 02:09:06;;;;;;;0.20;0.20;;;15.30;99.90;;;;;;4911967;29;20173;-91
2023/09/25 02:11:32;;;;;;;0.10;0.10;;;15.20;99.90;;;;;;4929810;29;20063;-90
2023/09/25 02:13:57;;;;;;;0.10;0.10;;;15.30;99.90;;;;;;4914282;29;20031;-91
2023/09/25 02:16:23;;;;;;;0.47;0.30;;;15.30;99.90;;;;;;4913898;29;20405;-90
2023/09/25 02:18:49;;;;;;;1.15;0.80;;;15.50;99.90;;;;;;4912936;29;20125;-90
2023/09/25 02:21:14;;;;;;;0.15;0.15;;;15.50;99.90;;;;;;4930029;29;20110;-88
2023/09/25 02:23:40;;;;;;;0.10;0.10;;;15.50;99.90;;;;;;4930333;29;20039;-90
2023/09/25 02:26:06;;;;;;;0.20;0.20;;;15.60;99.90;;;;;;4931178;29;20034;-90
2023/09/25 02:28:32;;;;;;;0.30;0.30;;;15.50;99.90;;;;;;4927524;29;20020;-85
2023/09/25 02:30:57;;;;;;;0.10;0.10;;;15.60;99.90;;;;;;4927612;29;20024;-84
2023/09/25 02:33:23;;;;;;;0.13;0.13;;;15.60;99.90;;;;;;4911399;29;20034;-85
2023/09/25 02:35:48;;;;;;;0.10;0.10;;;15.60;99.90;;;;;;4928790;29;20028;-85
2023/09/25 02:38:14;;;;;;;0.10;0.10;;;15.60;99.90;;;;;;4910854;29;20043;-85
2023/09/25 02:40:40;;;;;;;0.40;0.40;;;15.60;99.90;;;;;;4926949;29;20031;-85
2023/09/25 02:43:05;;;;;;;0.10;0.10;;;15.60;99.90;;;;;;4910167;29;20028;-85
2023/09/25 02:45:32;;;;;;;0.10;0.10;;;15.60;99.90;;;;;;4927406;29;20071;-84
2023/09/25 02:47:57;;;;;;;0.35;0.25;;;15.50;99.90;;;;;;4909899;29;20016;-84
2023/09/25 02:50:23;;;;;;;0.10;0.10;;;15.50;99.90;;;;;;4927867;29;20115;-84
2023/09/25 02:52:48;;;;;;;0.15;0.15;;;15.50;99.90;;;;;;4910890;29;20063;-85
2023/09/25 02:55:16;;;;;;;0.10;0.10;;;15.50;99.90;;;;;;4927477;29;20465;-83
2023/09/25 02:57:42;;;;;;;0.10;0.10;;;15.50;99.90;;;;;;4910687;29;20059;-85
2023/09/25 03:00:10;;;;;;;0.17;0.17;;;15.60;99.90;;;;;;4927548;29;20027;-84
2023/09/25 03:02:36;;;;;;;0.10;0.10;;;15.60;99.90;;;;;;4926630;29;20327;-85
2023/09/25 03:05:01;;;;;;;0.10;0.10;;;15.60;99.90;;;;;;4909899;29;20484;-84
2023/09/25 03:07:27;;;;;;;0.10;0.10;;;15.70;99.90;;;;;;4927042;29;20024;-85
2023/09/25 03:09:53;;;;;;;0.10;0.10;;;15.70;99.90;;;;;;4926851;29;20132;-85
2023/09/25 03:12:19;;;;;;;0.28;0.28;;;15.80;99.90;;;;;;4927185;29;20099;-85
2023/09/25 03:14:44;;;;;;;0.17;0.17;;;15.80;99.90;;;;;;4910798;29;20040;-85
2023/09/25 03:17:10;;;;;;;0.10;0.10;;;15.70;99.90;;;;;;4927037;29;20484;-84
2023/09/25 03:19:36;;;;;;;0.10;0.10;;;15.70;99.90;;;;;;4911403;29;20023;-85
2023/09/25 03:22:02;;;;;;;0.10;0.10;;;15.60;99.90;;;;;;4925846;29;20115;-83
2023/09/25 03:24:28;;;;;;;0.10;0.10;;;15.60;99.90;;;;;;4910848;29;20031;-85
2023/09/25 03:26:55;;;;;;;0.15;0.15;;;15.60;99.90;;;;;;4912613;29;20036;-84
2023/09/25 03:29:21;;;;;;;0.10;0.10;;;15.60;99.90;;;;;;4924544;29;20027;-85
2023/09/25 03:31:46;;;;;;;0.30;0.30;;;15.60;99.90;;;;;;4908586;29;20452;-85
2023/09/25 03:34:12;;;;;;;0.10;0.10;;;15.60;99.90;;;;;;4932507;29;20452;-85
2023/09/25 03:36:37;;;;;;;0.15;0.15;;;15.70;99.90;;;;;;4927015;29;20256;-85
2023/09/25 03:39:04;;;;;;;0.20;0.20;;;15.60;99.90;;;;;;4924561;29;20030;-85
2023/09/25 03:41:29;;;;;;;0.10;0.10;;;15.50;99.90;;;;;;4911195;29;20030;-85
2023/09/25 03:43:57;;;;;;;0.10;0.10;;;15.50;99.90;;;;;;4909066;29;20035;-84
2023/09/25 03:46:23;;;;;;;0.57;0.50;;;15.60;99.90;;;;;;4910057;29;20020;-84
2023/09/25 03:48:48;;;;;;;0.20;0.20;;;15.50;99.90;;;;;;4928631;29;20079;-85
2023/09/25 03:51:14;;;;;;;0.20;0.20;;;15.50;99.90;;;;;;4910017;29;20032;-85
2023/09/25 03:53:39;;;;;;;0.10;0.10;;;15.50;99.90;;;;;;4908696;29;20106;-85
2023/09/25 03:56:05;;;;;;;0.10;0.10;;;15.40;99.90;;;;;;4910158;29;20062;-84
2023/09/25 03:58:30;;;;;;;0.22;0.15;;;15.40;99.90;;;;;;4925421;29;20493;-84
2023/09/25 04:00:57;;;;;;;1.38;0.40;;;15.40;99.90;;;;;;4928294;29;20043;-84
2023/09/25 04:03:23;;;;;;;0.15;0.15;;;15.50;99.90;;;;;;4908677;29;20393;-85
2023/09/25 04:05:48;;;;;;;0.10;0.10;;;15.50;99.90;;;;;;4910994;29;20389;-85
2023/09/25 04:08:16;;;;;;;0.20;0.20;;;15.50;99.90;;;;;;4925182;29;20472;-85
2023/09/25 04:10:43;;;;;;;0.30;0.30;;;15.40;99.90;;;;;;4926407;29;20028;-84
2023/09/25 04:13:09;;;;;;;0.10;0.10;;;15.40;99.90;;;;;;4927142;29;20480;-84
2023/09/25 04:15:35;;;;;;;0.47;0.45;;;15.40;99.90;;;;;;4907459;29;20094;-84
2023/09/25 04:18:01;;;;;;;0.10;0.10;;;15.40;99.90;;;;;;4927774;29;20079;-85
2023/09/25 04:20:27;;;;;;;0.10;0.10;;;15.30;99.90;;;;;;4924607;29;20019;-85
2023/09/25 04:22:53;;;;;;;0.10;0.10;;;15.30;99.90;;;;;;4910062;29;20039;-85
2023/09/25 04:25:19;;;;;;;0.20;0.20;;;15.30;99.90;;;;;;4909168;29;20404;-85
2023/09/25 04:27:47;;;;;;;0.10;0.10;;;15.30;99.90;;;;;;4926208;29;20035;-84
2023/09/25 04:30:14;;;;;;;0.28;0.28;;;15.30;99.90;;;;;;4910027;29;20099;-84
2023/09/25 04:32:42;;;;;;;0.20;0.20;;;15.30;99.90;;;;;;4907922;29;20039;-85
2023/09/25 04:35:13;;;;;;;0.30;0.30;;;15.30;99.90;;;;;;4910845;29;20043;-84
2023/09/25 04:37:42;;;;;;;0.10;0.10;;;15.20;99.90;;;;;;4907890;29;20155;-84
2023/09/25 04:40:29;;;;;;;0.10;0.10;;;15.30;99.90;;;;;;4908485;29;20032;-84
2023/09/25 04:42:56;;;;;;;0.10;0.10;;;15.20;99.90;;;;;;4907334;29;20342;-85
2023/09/25 04:45:23;;;;;;;2.30;0.30;;;15.00;99.90;;;;;;4925703;29;20110;-85
2023/09/25 04:47:53;;;;;;;0.10;0.10;;;14.90;99.90;;;;;;4924829;29;20024;-85
2023/09/25 04:50:22;;;;;;;0.10;0.10;;;14.90;99.90;;;;;;4910194;29;20032;-85
2023/09/25 04:52:48;;;;;;;0.17;0.17;;;14.80;99.90;;;;;;4926471;29;20020;-85
2023/09/25 04:55:14;;;;;;;0.10;0.10;;;14.80;99.90;;;;;;4926872;29;20138;-84
2023/09/25 04:57:42;;;;;;;0.30;0.20;;;14.80;99.90;;;;;;4908274;29;20061;-84
2023/09/25 05:00:21;;;;;;;0.10;0.10;;;14.80;99.90;;;;;;4904644;29;20020;-84
2023/09/25 05:02:49;;;;;;;0.10;0.10;;;14.90;99.90;;;;;;4910661;29;20027;-85
2023/09/25 05:05:16;;;;;;;0.20;0.20;;;14.90;99.90;;;;;;4922786;29;20036;-85
2023/09/25 05:07:42;;;;;;;0.77;0.30;;;14.80;99.90;;;;;;4908675;29;20024;-84
2023/09/25 05:10:12;;;;;;;0.20;0.20;;;14.90;99.90;;;;;;4909082;29;20023;-84
2023/09/25 05:12:41;;;;;;;0.10;0.10;;;14.90;99.90;;;;;;4907964;29;20258;-84
2023/09/25 05:15:07;;;;;;;0.10;0.10;;;14.90;99.90;;;;;;4908316;29;20039;-84
2023/09/25 05:17:38;;;;;;;0.30;0.30;;;14.90;99.90;;;;;;4906415;29;20032;-85
2023/09/25 05:20:10;;;;;;;0.40;0.40;;;14.90;99.90;;;;;;4929266;29;20020;-85
2023/09/25 05:22:37;;;;;;;0.20;0.20;;;14.90;99.90;;;;;;4914784;29;20374;-85
2023/09/25 05:25:04;;;;;;;0.20;0.20;;;14.90;99.90;;;;;;4933850;29;20028;-84
2023/09/25 05:27:30;;;;;;;0.10;0.10;;;15.00;99.90;;;;;;4931602;29;20388;-85
2023/09/25 05:29:57;;;;;;;0.10;0.10;;;15.00;99.90;;;;;;4915495;29;20032;-84
2023/09/25 05:32:23;;;;;;;0.35;0.35;;;15.10;99.90;;;;;;4916046;29;20359;-84
2023/09/25 05:34:49;;;;;;;0.13;0.13;;;15.10;99.90;;;;;;4914253;29;20496;-84
2023/09/25 05:37:15;;;;;;;0.20;0.20;;;15.10;99.90;;;;;;4914524;29;20063;-84
2023/09/25 05:39:40;;;;;;;0.43;0.43;;;15.20;99.90;;;;;;4927685;29;20028;-85
2023/09/25 05:42:06;;;;;;;0.30;0.25;;;15.20;99.90;;;;;;4914060;29;20031;-87
2023/09/25 05:44:34;;;;;;;0.95;0.50;;;15.30;99.90;;;;;;4914976;29;20019;-86
2023/09/25 05:47:08;;;;;;;0.30;0.30;;;15.30;99.90;;;;;;4915634;29;20016;-91
2023/09/25 05:49:34;;;;;;;0.22;0.22;;;15.30;99.90;;;;;;4914112;29;20023;-92
2023/09/25 05:52:07;;;;;;;0.10;0.10;;;15.30;99.90;;;;;;4912707;29;20031;-94
2023/09/25 05:54:33;;;;;;;0.70;0.38;;;15.30;99.90;;;;;;4916511;29;20380;-92
2023/09/25 05:56:59;;;;;;;0.30;0.30;;;15.30;99.90;;;;;;4916067;29;20047;-93
2023/09/25 05:59:25;;;;;;;0.20;0.20;;;15.40;99.90;;;;;;4916442;29;20046;-90
2023/09/25 06:01:50;;;;;;;0.43;0.43;;;15.40;99.90;;;;;;4914989;29;20140;-92
2023/09/25 06:04:17;;;;;;;0.13;0.13;;;15.30;99.90;;;;;;4916285;29;20027;-90
2023/09/25 06:06:43;;;;;;;0.30;0.30;;;15.30;99.90;;;;;;4914672;29;20024;-91
2023/09/25 06:09:15;;;;;;;0.10;0.10;;;15.30;99.90;;;;;;4913924;29;20043;-90
2023/09/25 06:11:42;;;;;;;0.10;0.10;;;15.30;99.90;;;;;;4916404;29;20118;-90
2023/09/25 06:14:10;;;;;;;0.38;0.38;;;15.30;99.90;;;;;;4915050;29;20399;-91
2023/09/25 06:16:36;;;;;;;0.30;0.22;;;15.30;99.90;;;;;;4927864;29;20024;-91
2023/09/25 06:19:06;;;;;;;0.30;0.30;;;15.40;99.90;;;;;;4912615;29;20469;-90
2023/09/25 06:21:33;;;;;;;0.38;0.35;;;15.50;99.90;;;;;;4932914;29;20107;-92
2023/09/25 06:23:59;;;;;;;0.10;0.10;;;15.50;99.90;;;;;;4930484;29;20118;-92
2023/09/25 06:26:27;;;;;;;0.10;0.10;;;15.60;99.90;;;;;;4915988;29;20115;-89
2023/09/25 06:28:54;;;;;;;0.10;0.10;;;15.60;99.90;;;;;;4914246;29;20484;-90
2023/09/25 06:31:20;;;;;;;1.65;0.52;;;15.70;99.90;;;;;;4934000;29;20071;-90
2023/09/25 06:33:47;;;;;;;0.40;0.40;;;15.60;99.90;;;;;;4909807;29;20051;-89
2023/09/25 06:36:13;;;;;;;0.20;0.20;;;15.70;99.90;;;;;;4913017;29;20020;-91
2023/09/25 06:38:39;;;;;;;0.20;0.20;;;15.80;99.90;;;;;;4907420;29;20032;-90
2023/09/25 06:41:05;;;;;;;0.20;0.20;;;15.90;99.90;;;;;;4911388;29;20030;-89
2023/09/25 06:43:33;;;;;;;0.22;0.22;;;15.90;99.90;;;;;;4910754;29;20448;-90
2023/09/25 06:45:58;;;;;;;3.80;0.40;;;15.90;99.90;;;;;;4911927;29;20467;-91
2023/09/25 06:48:24;;;;;;;0.20;0.20;;;15.90;99.90;;;;;;4910728;29;20036;-91
2023/09/25 06:50:49;;;;;;;0.95;0.68;;;15.90;99.90;;;;;;4914320;29;20063;-91
2023/09/25 06:53:17;;;;;;;0.20;0.20;;;15.90;99.90;;;;;;4910686;29;20035;-91
2023/09/25 06:55:44;;;;;;;0.45;0.45;;;15.90;99.90;;;;;;4913133;29;20039;-90
2023/09/25 06:58:10;;;;;;;0.10;0.10;;;16.00;99.90;;;;;;4911380;29;20032;-90
2023/09/25 07:00:36;;;;;;;0.20;0.20;;;16.00;99.90;;;;;;4912003;29;20028;-90
2023/09/25 07:03:02;;;;;;;0.22;0.22;;;16.10;99.90;;;;;;4911632;29;20034;-92
2023/09/25 07:05:30;;;;;;;0.20;0.20;;;16.10;99.90;;;;;;4906926;29;20058;-93
2023/09/25 07:07:56;;;;;;;0.20;0.20;;;16.00;99.90;;;;;;4912581;29;20032;-89
2023/09/25 07:10:22;;;;;;;0.10;0.10;;;16.00;99.90;;;;;;4914072;29;20106;-88
2023/09/25 07:12:48;;;;;;;0.10;0.10;;;16.10;99.90;;;;;;4908731;29;20504;-89
2023/09/25 07:15:13;;;;;;;0.20;0.20;;;16.20;99.90;;;;;;4910288;29;20136;-87
2023/09/25 07:17:39;;;;;;;0.20;0.20;;;16.10;99.90;;;;;;4911097;29;20024;-89
2023/09/25 07:20:05;;;;;;;0.20;0.20;;;16.10;99.90;;;;;;4911293;29;20046;-89
2023/09/25 07:22:31;;;;;;;0.20;0.20;;;16.20;99.90;;;;;;4909152;29;20548;-90
2023/09/25 07:24:57;;;;;;;0.30;0.30;;;16.20;99.90;;;;;;4911199;29;20535;-89
2023/09/25 07:27:23;;;;;;;0.20;0.20;;;16.30;99.90;;;;;;4910742;29;20028;-90
2023/09/25 07:29:49;;;;;;;0.30;0.30;;;16.40;99.90;;;;;;4909530;29;20404;-90
2023/09/25 07:32:18;;;;;;;0.20;0.20;;;16.40;99.90;;;;;;4910227;29;20051;-91
2023/09/25 07:34:45;;;;;;;0.10;0.10;;;16.50;99.90;;;;;;4912243;29;20031;-91
2023/09/25 07:37:12;;;;;;;0.17;0.17;;;16.40;99.90;;;;;;4911043;29;20031;-90
2023/09/25 07:39:40;;;;;;;0.20;0.20;;;16.50;99.90;;;;;;4912997;29;20071;-91
2023/09/25 07:42:07;;;;;;;0.20;0.20;;;16.50;99.90;;;;;;4910483;29;20072;-90
2023/09/25 07:44:36;;;;;;;0.10;0.10;;;16.60;99.90;;;;;;4907810;29;20039;-92
2023/09/25 07:47:06;;;;;;;0.25;0.25;;;16.60;99.90;;;;;;4907057;29;20028;-94
2023/09/25 07:49:40;;;;;;;0.10;0.10;;;16.60;99.90;;;;;;4927049;29;20028;-90
2023/09/25 07:52:19;;;;;;;0.38;0.38;;;16.60;99.90;;;;;;4910611;29;20035;-91
2023/09/25 07:54:49;;;;;;;0.22;0.22;;;16.70;99.90;;;;;;4912407;29;20502;-91
2023/09/25 07:57:16;;;;;;;0.20;0.20;;;16.70;99.90;;;;;;4913111;29;20035;-91
2023/09/25 07:59:45;;;;;;;0.25;0.25;;;16.70;99.90;;;;;;4911136;29;20030;-90
2023/09/25 08:02:18;;;;;;;0.30;0.30;;;16.80;99.90;;;;;;4913439;29;20071;-89
2023/09/25 08:04:44;;;;;;;;;;;16.80;99.90;;;;;;4928002;29;20020;-89
2023/09/25 08:07:31;;;;;;;0.10;0.10;;;16.90;99.90;;;;;;4909422;29;19914;-90
2023/09/25 08:10:09;;;;;;;;;;;;;;;;;;;;;
2023/09/25 08:12:46;;;;;;;;;;;;;;;;;;;;;
2023/09/25 08:15:15;;;;;;;0.13;0.13;;;17.10;99.90;;;;;;4927129;29;20046;-91
2023/09/25 08:28:01;;;;;;;0.20;0.20;;;17.40;99.90;;;;;;4956637;28;20078;-96
2023/09/25 08:30:35;;;;;;;0.30;0.30;;;17.60;99.90;;;;;;5220388;23;20077;-95
2023/09/25 08:33:04;;;;;;;0.20;0.20;;;17.70;99.90;;;;;;4926963;28;20058;-95
2023/09/25 08:35:40;;;;;;;;;;;;;;;;;;;;;
2023/09/25 08:38:09;;;;;;;0.10;0.10;;;17.70;99.90;;;;;;4944773;28;20074;-91
2023/09/25 08:40:43;;;;;;;0.40;0.40;;;17.90;99.90;;;;;;4936143;28;20070;-94
2023/09/25 08:43:21;;;;;;;;;;;;;;;;;;;;;
2023/09/25 08:45:59;;;;;;;0.10;0.10;;;18.00;99.90;;;;;;4945777;28;20042;-94
2023/09/25 08:48:27;;;;;;;2.13;0.38;;;18.10;99.90;;;;;;4941782;28;20159;-91
2023/09/25 08:50:57;;;;;;;0.30;0.30;;;18.10;99.90;;;;;;4934662;28;20019;-96
2023/09/25 08:53:23;;;;;;;0.28;0.28;;;18.20;99.90;;;;;;4940084;28;20026;-95
2023/09/25 08:55:52;;;;;;;0.60;0.60;;;18.30;99.90;;;;;;4952059;28;20061;-96
2023/09/25 09:01:59;;;;;;;0.20;0.20;;;18.40;99.90;;;;;;5009643;23;20057;-90
2023/09/25 09:04:36;;;;;;;0.22;0.22;;;18.50;99.90;;;;;;4932412;28;20064;-92
2023/09/25 09:07:04;;;;;;;0.20;0.20;;;18.80;99.90;;;;;;4947265;28;20731;-92
2023/09/25 09:09:40;;;;;;;;;;;;;;;;;;;;;
2023/09/25 09:12:09;;;;;;;0.20;0.20;;;19.00;99.50;;;;;;4953162;28;20031;-91
2023/09/25 09:14:40;;;;;;;0.28;0.28;;;19.00;98.70;;;;;;4941219;28;20031;-93
2023/09/25 09:17:14;;;;;;;0.20;0.20;;;19.10;98.70;;;;;;4948432;28;20043;-90
2023/09/25 09:19:46;;;;;;;0.20;0.20;;;19.20;98.20;;;;;;4940312;28;20043;-96
2023/09/25 09:22:16;;;;;;;0.20;0.20;;;19.20;97.80;;;;;;4950495;28;20574;-90
2023/09/25 09:24:43;;;;;;;0.38;0.38;;;19.30;97.40;;;;;;4936078;28;20038;-96
2023/09/25 09:27:14;;;;;;;0.40;0.40;;;19.50;97.30;;;;;;4937841;28;20051;-96
2023/09/25 09:29:45;;;;;;;0.25;0.22;;;19.50;97.70;;;;;;4951909;28;20031;-94
2023/09/25 09:32:11;;;;;;;0.20;0.20;;;19.70;97.40;;;;;;5183887;23;20049;-93
2023/09/25 09:34:41;;;;;;;0.40;0.40;;;19.80;97.60;;;;;;4945247;28;20106;-93
2023/09/25 09:37:10;;;;;;;0.20;0.20;;;20.00;96.90;;;;;;4944784;28;20027;-92
2023/09/25 09:39:37;;;;;;;0.28;0.28;;;20.10;95.50;;;;;;4944212;28;20030;-92
2023/09/25 09:47:51;;;;;;;0.50;0.50;;;20.60;94.70;;;;;;4972696;23;20079;-92
2023/09/25 09:50:28;;;;;;;0.22;0.22;;;20.60;94.30;;;;;;4937549;28;20031;-96
2023/09/25 09:52:57;;;;;;;0.40;0.40;;;20.70;93.20;;;;;;4955598;28;20027;-96
2023/09/25 09:55:27;;;;;;;0.30;0.30;;;20.80;93.50;;;;;;4979050;23;20109;-93
2023/09/25 09:57:54;;;;;;;0.40;0.40;;;20.90;93.30;;;;;;4944229;28;20023;-96
2023/09/25 10:00:21;;;;;;;0.30;0.30;;;21.00;92.90;;;;;;4946629;28;20251;-96
2023/09/25 10:05:28;;;;;;;0.30;0.30;;;21.20;91.30;;;;;;5649447;23;20503;-93
2023/09/25 10:08:14;;;;;;;0.40;0.40;;;21.60;92.00;;;;;;4955532;28;20050;-94
2023/09/25 10:11:08;;;;;;;0.43;0.43;;;21.60;91.30;;;;;;4966162;28;20501;-95
2023/09/25 10:13:37;;;;;;;0.40;0.40;;;21.70;91.00;;;;;;4950205;28;20058;-96
2023/09/25 10:16:19;;;;;;;;;;;;;;;;;;;;;
2023/09/25 10:18:54;;;;;;;0.30;0.30;;;21.70;90.00;;;;;;4975681;28;20100;-96
2023/09/25 10:22:09;;;;;;;0.70;0.70;;;21.50;87.70;;;;;;5247676;23;20047;-92
2023/09/25 10:24:45;;;;;;;;;;;;;;;;;;;;;
2023/09/25 10:27:17;;;;;;;0.30;0.30;;;21.80;90.40;;;;;;4956631;28;20031;-96
2023/09/25 10:33:02;;;;;;;;;;;;;;;;;;;;;
2023/09/25 10:36:28;;;;;;;;;;;;;;;;;;;;;
2023/09/25 10:39:04;;;;;;;0.60;0.60;;;22.60;86.50;;;;;;4946252;28;20104;-96
2023/09/25 10:41:41;;;;;;;1.15;0.68;;;22.50;85.30;;;;;;4942277;28;20031;-96
2023/09/25 10:44:35;;;;;;;;;;;;;;;;;;;;;
2023/09/25 11:02:37;;;;;;;0.40;0.40;;;22.60;85.10;;;;;;4955423;28;20059;-92
2023/09/25 11:05:06;;;;;;;0.30;0.30;;;22.50;83.50;;;;;;4939204;28;20034;-92
2023/09/25 11:07:32;;;;;;;1.52;1.25;;;22.60;86.90;;;;;;4942663;28;20693;-91
2023/09/25 11:26:04;;;;;;;;;;;22.80;84.20;;;;;;4895806;29;20040;-93
2023/09/25 11:28:32;;;;;;;0.30;0.30;;;22.90;86.00;;;;;;4886499;29;19912;-93
2023/09/25 11:31:02;;;;;;;0.40;0.40;;;22.90;83.40;;;;;;4900127;29;20051;-92
2023/09/25 11:33:28;;;;;;;0.40;0.40;;;22.90;84.90;;;;;;4889192;29;20048;-93
2023/09/25 11:35:56;;;;;;;0.30;0.30;;;23.10;86.50;;;;;;4890405;29;20028;-93
2023/09/25 11:38:28;;;;;;;0.35;0.35;;;23.00;83.30;;;;;;4881363;29;20086;-93
2023/09/25 11:40:54;;;;;;;0.40;0.40;;;23.10;83.60;;;;;;4879730;29;20036;-92
2023/09/25 11:43:20;;;;;;;0.40;0.40;;;22.90;83.50;;;;;;4885468;29;20025;-91
2023/09/25 11:45:46;;;;;;;1.60;0.65;;;22.90;82.40;;;;;;4884292;29;20078;-91
2023/09/25 11:48:16;;;;;;;0.35;0.35;;;22.90;83.70;;;;;;4885152;29;20036;-89
2023/09/25 11:50:42;;;;;;;0.82;0.82;;;23.00;83.90;;;;;;4886551;29;20509;-96
2023/09/25 11:55:43;;;;;;;0.30;0.30;;;23.10;81.20;;;;;;5369567;23;20057;-96
2023/09/25 11:58:09;;;;;;;0.40;0.40;;;22.80;80.40;;;;;;4929391;28;20338;-96
2023/09/25 12:00:41;;;;;;;0.32;0.32;;;22.80;82.10;;;;;;4928029;29;20028;-96
2023/09/25 12:14:08;;;;;;;;;;;;;;;;;;;;;
2023/09/25 12:42:31;;;;;;;0.40;0.40;;;23.10;82.90;;;;;;4960651;28;20043;-95
2023/09/25 12:45:06;;;;;;;0.25;0.25;;;23.10;82.40;;;;;;5099297;23;20047;-96
2023/09/25 12:53:17;;;;;;;;;;;;;;;;;;;;;
2023/09/25 12:55:50;;;;;;;0.28;0.28;;;23.50;84.30;;;;;;4973620;28;20050;-93
2023/09/25 12:58:28;;;;;;;;;;;;;;;;;;;;;
2023/09/25 13:03:51;;;;;;;0.40;0.40;;;23.70;80.30;;;;;;4973633;28;20035;-94
2023/09/25 13:06:25;;;;;;;0.32;0.32;;;23.70;80.50;;;;;;4953013;28;20050;-92
2023/09/25 13:09:05;;;;;;;0.30;0.30;;;23.70;84.80;;;;;;4955482;28;20521;-95
2023/09/25 13:12:06;;;;;;;;;;;;;;;;;;;;;
2023/09/25 13:14:34;;;;;;;0.50;0.50;;;23.90;80.70;;;;;;4973706;28;20026;-94
2023/09/25 13:17:03;;;;;;;0.30;0.30;;;23.90;82.70;;;;;;4954607;28;20022;-94
2023/09/25 13:19:32;;;;;;;0.40;0.40;;;23.90;83.20;;;;;;4961884;28;20037;-94
2023/09/25 13:21:58;;;;;;;0.50;0.50;;;23.80;77.40;;;;;;4952177;28;20027;-90
2023/09/25 13:24:25;;;;;;;0.68;0.68;;;23.90;81.70;;;;;;4952704;28;20596;-92
2023/09/25 13:27:01;;;;;;;;;;;;;;;;;;;;;
2023/09/25 13:29:27;;;;;;;0.60;0.60;;;23.90;78.20;;;;;;4979649;28;20026;-93
2023/09/25 13:31:57;;;;;;;0.50;0.50;;;23.90;78.90;;;;;;4964921;28;20101;-92
2023/09/25 13:34:26;;;;;;;0.40;0.40;;;23.80;76.60;;;;;;4965576;28;20035;-94
2023/09/25 13:37:01;;;;;;;0.30;0.30;;;23.80;79.00;;;;;;4965351;28;20030;-94
2023/09/25 13:39:28;;;;;;;0.50;0.50;;;23.70;79.40;;;;;;4955475;28;20042;-92
2023/09/25 13:41:56;;;;;;;0.40;0.40;;;23.70;81.80;;;;;;4963315;28;20041;-92
2023/09/25 13:44:25;;;;;;;0.35;0.35;;;23.60;79.70;;;;;;4968621;28;20077;-92
2023/09/25 13:46:54;;;;;;;0.40;0.40;;;23.70;76.10;;;;;;4965833;28;20233;-92
2023/09/25 13:49:26;;;;;;;0.30;0.30;;;23.70;81.90;;;;;;4967587;28;20485;-94
2023/09/25 13:52:00;;;;;;;0.40;0.40;;;23.60;79.60;;;;;;4974533;28;20453;-96
2023/09/25 14:10:01;;;;;;;0.38;0.38;;;24.20;82.30;;;;;;5707213;23;20526;-93
2023/09/25 14:15:17;;;;;;;0.40;0.40;;;24.30;76.10;;;;;;5477185;23;20059;-92
2023/09/25 14:30:58;;;;;;;1.80;0.50;;;24.30;79.50;;;;;;5419898;23;20059;-92
2023/09/25 14:33:23;;;;;;;0.50;0.50;;;24.40;77.60;;;;;;4923262;29;20039;-91
2023/09/25 14:35:54;;;;;;;0.45;0.45;;;24.40;78.90;;;;;;4925989;29;20038;-92
2023/09/25 14:38:31;;;;;;;0.40;0.40;;;24.50;78.00;;;;;;4929160;28;20184;-93
2023/09/25 14:40:58;;;;;;;0.40;0.40;;;24.60;77.50;;;;;;4937623;28;20149;-90
2023/09/25 14:43:29;;;;;;;0.30;0.30;;;24.60;75.30;;;;;;4943461;28;20019;-91
2023/09/25 14:45:55;;;;;;;0.40;0.40;;;24.60;77.30;;;;;;4947780;28;20041;-91
2023/09/25 14:48:20;;;;;;;1.75;0.55;;;24.60;78.20;;;;;;4958395;28;20030;-90
2023/09/25 14:58:32;;;;;;;0.50;0.50;;;24.80;76.50;;;;;;5883251;23;20010;-92
2023/09/25 15:01:03;;;;;;;0.30;0.30;;;24.80;73.60;;;;;;4932197;29;20050;-96
2023/09/25 15:03:32;;;;;;;0.40;0.40;;;24.90;77.20;;;;;;5294629;23;20074;-96
2023/09/25 15:05:58;;;;;;;0.40;0.40;;;24.90;74.40;;;;;;4950425;28;20027;-96
2023/09/25 15:08:26;;;;;;;0.40;0.40;;;24.70;73.70;;;;;;4949426;28;20050;-96
2023/09/25 15:47:17;;;;;;;0.38;0.38;;;24.50;74.60;;;;;;5200088;23;20368;-96
2023/09/25 15:59:59;;;;;;;0.40;0.40;;;24.30;76.80;;;;;;4945295;28;20039;-91
2023/09/25 16:10:13;;;;;;;0.30;0.30;;;24.40;76.70;;;;;;5160607;23;20407;-91
2023/09/25 16:12:40;;;;;;;0.30;0.30;;;24.40;75.30;;;;;;4927054;29;20118;-91
2023/09/25 16:15:06;;;;;;;0.50;0.50;;;24.30;76.90;;;;;;4925317;29;20058;-91
2023/09/25 16:17:32;;;;;;;0.52;0.52;;;24.20;78.30;;;;;;4940054;28;20156;-90
2023/09/25 16:19:58;;;;;;;0.40;0.40;;;24.00;80.40;;;;;;4927435;29;20106;-91
2023/09/25 16:22:23;;;;;;;0.40;0.40;;;24.10;76.60;;;;;;4926474;28;20190;-90
2023/09/25 16:24:49;;;;;;;0.45;0.45;;;24.10;77.90;;;;;;4924989;29;20034;-91
2023/09/25 16:27:15;;;;;;;0.60;0.60;;;24.20;78.50;;;;;;4926277;29;20070;-91
2023/09/25 16:29:40;;;;;;;0.40;0.40;;;24.20;79.00;;;;;;4924629;29;20027;-91
2023/09/25 17:26:39;;;;;;;0.85;0.52;;;23.10;90.10;;;;;;5410962;23;20063;-92